Terminal Aerodrome Forecast
Issued by NWS

Home | Current Version | Previous Version | Text Only | Print | Product List | Glossary On
Versions: 1 2 3 4 5 6 7 8 9 10 11 12 13 14 15 16 17 18 19
000
FTUS41 KPBZ 141100
TAFZZV
TAF
KZZV 141136Z 1412/1512 20005KT 3SM BR OVC004
     FM141300 21006KT P6SM VCTS BKN010CB
      TEMPO 1413/1415 3SM TSRA BKN010CB
     FM141700 23007KT P6SM VCSH BKN035
     FM150500 23003KT P6SM VCSH BKN005=

USA.gov is the U.S. government's official web portal to all federal, state and local government web resources and services.